Time;durP1;ratioP1;P1;durP2;ratioP2;P2;SDS_P1;SDS_P2;PMS_P1;PMS_P2;Temp;Humidity;BMP_temperature;BMP_pressure;BME280_temperature;BME280_humidity;BME280_pressure;Samples;Min_cycle;Max_cycle;Signal;HPM_P1;HPM_P2
2022/03/18 00:02:14;;;;;;;133.67;60.20;;;7.40;99.90;;;;;;5091505;28;20404;-78
2022/03/18 00:04:39;;;;;;;164.47;64.90;;;7.30;99.90;;;;;;5089834;28;20444;-79
2022/03/18 00:07:05;;;;;;;157.73;64.60;;;7.40;99.90;;;;;;5091255;28;20457;-78
2022/03/18 00:09:31;;;;;;;130.53;59.90;;;7.40;99.90;;;;;;5094161;28;20225;-80
2022/03/18 00:11:57;;;;;;;128.47;59.00;;;7.40;99.90;;;;;;5075256;28;20945;-79
2022/03/18 00:14:23;;;;;;;191.10;67.97;;;7.40;99.90;;;;;;5090966;28;20529;-77
2022/03/18 00:16:49;;;;;;;206.43;70.77;;;7.40;99.90;;;;;;5090633;28;20476;-81
2022/03/18 00:19:15;;;;;;;180.03;66.03;;;7.40;99.90;;;;;;5092569;28;20676;-82
2022/03/18 00:21:41;;;;;;;104.87;58.57;;;7.40;99.90;;;;;;5090531;28;20175;-82
2022/03/18 00:24:07;;;;;;;184.73;64.97;;;7.40;99.90;;;;;;5090097;28;20444;-82
2022/03/18 00:26:32;;;;;;;149.93;63.47;;;7.40;99.90;;;;;;5090191;28;20186;-78
2022/03/18 00:28:59;;;;;;;135.93;66.23;;;7.40;99.90;;;;;;5091386;28;20551;-77
2022/03/18 00:31:24;;;;;;;203.23;67.27;;;7.40;99.90;;;;;;5092190;28;20487;-78
2022/03/18 00:33:50;;;;;;;134.07;60.90;;;7.40;99.90;;;;;;5093282;28;20891;-79
2022/03/18 00:36:16;;;;;;;83.53;52.17;;;7.40;99.90;;;;;;5092593;28;20171;-80
2022/03/18 00:38:43;;;;;;;155.30;60.47;;;7.40;99.90;;;;;;5091587;28;20182;-80
2022/03/18 00:41:08;;;;;;;119.00;58.33;;;7.30;99.90;;;;;;5092620;28;20496;-79
2022/03/18 00:43:34;;;;;;;139.80;60.73;;;7.40;99.90;;;;;;5090609;28;20441;-80
2022/03/18 00:46:00;;;;;;;123.87;59.93;;;7.40;99.90;;;;;;5091202;28;20214;-78
2022/03/18 00:53:54;;;;;;;117.60;55.90;;;7.40;99.90;;;;;;5090658;28;20463;-77
2022/03/18 00:56:20;;;;;;;108.07;56.10;;;7.30;99.90;;;;;;5090014;28;20420;-80
2022/03/18 00:58:45;;;;;;;123.40;56.60;;;7.40;99.90;;;;;;5088849;28;20194;-80
2022/03/18 01:01:11;;;;;;;117.17;55.73;;;7.20;99.90;;;;;;5088471;28;20175;-79
2022/03/18 01:03:37;;;;;;;132.67;59.27;;;7.30;99.90;;;;;;5088287;28;20210;-79
2022/03/18 01:06:03;;;;;;;165.60;62.47;;;7.30;99.90;;;;;;5088533;28;20428;-80
2022/03/18 01:08:29;;;;;;;140.57;60.27;;;7.30;99.90;;;;;;5089978;28;20650;-80
2022/03/18 01:10:55;;;;;;;161.93;61.40;;;7.30;99.90;;;;;;5088494;28;20428;-80
2022/03/18 01:13:22;;;;;;;151.77;62.53;;;7.30;99.90;;;;;;5089311;28;20905;-78
2022/03/18 01:15:47;;;;;;;133.53;59.63;;;7.30;99.90;;;;;;5087625;28;20429;-78
2022/03/18 01:18:14;;;;;;;123.87;57.60;;;7.30;99.90;;;;;;5070320;28;20801;-78
2022/03/18 01:20:40;;;;;;;124.83;58.57;;;7.20;99.90;;;;;;5088437;28;20200;-78
2022/03/18 01:23:06;;;;;;;126.23;58.47;;;7.20;99.90;;;;;;5087974;28;20881;-80
2022/03/18 01:25:33;;;;;;;109.10;55.87;;;7.30;99.90;;;;;;5090327;28;20520;-80
2022/03/18 01:28:01;;;;;;;186.80;63.57;;;7.30;99.90;;;;;;5091834;28;20485;-81
2022/03/18 01:30:30;;;;;;;147.73;59.83;;;7.30;99.90;;;;;;5073722;28;20480;-80
2022/03/18 01:32:56;;;;;;;153.60;61.93;;;7.30;99.90;;;;;;5089018;28;20471;-80
2022/03/18 01:35:22;;;;;;;127.50;55.17;;;7.30;99.90;;;;;;5072386;28;20508;-79
2022/03/18 01:37:51;;;;;;;119.53;55.30;;;7.30;99.90;;;;;;5089131;28;20842;-78
2022/03/18 01:40:16;;;;;;;105.10;53.57;;;7.30;99.90;;;;;;5056294;28;20562;-81
2022/03/18 01:42:42;;;;;;;120.90;54.40;;;7.20;99.90;;;;;;5088519;28;20448;-77
2022/03/18 01:45:08;;;;;;;152.53;56.37;;;7.30;99.90;;;;;;5090195;28;20187;-78
2022/03/18 01:47:34;;;;;;;113.27;51.80;;;7.20;99.90;;;;;;5087890;28;20698;-79
2022/03/18 01:50:00;;;;;;;111.50;51.80;;;7.30;99.90;;;;;;5070644;28;20505;-79
2022/03/18 01:52:27;;;;;;;127.03;55.53;;;7.30;99.90;;;;;;5088839;28;20420;-79
2022/03/18 01:54:53;;;;;;;106.77;52.87;;;7.40;99.90;;;;;;5089634;28;20555;-78
2022/03/18 01:57:23;;;;;;;105.40;52.73;;;7.20;99.90;;;;;;5090205;28;20528;-79
2022/03/18 01:59:50;;;;;;;118.37;55.50;;;7.40;99.90;;;;;;5088326;28;20442;-78
2022/03/18 02:02:17;;;;;;;135.40;54.90;;;7.30;99.90;;;;;;5088705;28;20820;-79
2022/03/18 02:04:43;;;;;;;136.30;57.63;;;7.30;99.90;;;;;;5089978;28;20421;-79
2022/03/18 02:07:09;;;;;;;133.17;56.20;;;7.20;99.90;;;;;;5090278;28;20473;-79
2022/03/18 02:09:36;;;;;;;137.13;57.93;;;7.30;99.90;;;;;;5072098;28;20417;-79
2022/03/18 02:12:03;;;;;;;143.33;59.80;;;7.30;99.90;;;;;;5088318;28;20432;-79
2022/03/18 02:14:30;;;;;;;99.60;49.03;;;7.30;99.90;;;;;;5089926;28;20468;-79
2022/03/18 02:16:55;;;;;;;118.50;53.07;;;7.30;99.90;;;;;;5089856;28;20447;-79
2022/03/18 02:19:24;;;;;;;134.00;53.90;;;7.40;99.90;;;;;;5055406;28;20444;-78
2022/03/18 02:21:55;;;;;;;111.37;53.07;;;7.30;99.90;;;;;;5088446;28;20653;-79
2022/03/18 02:24:21;;;;;;;101.93;49.50;;;7.30;99.90;;;;;;5071831;28;20466;-79
2022/03/18 02:26:47;;;;;;;126.70;53.10;;;7.20;99.90;;;;;;5087948;28;20482;-79
2022/03/18 02:29:13;;;;;;;107.13;52.40;;;7.30;99.90;;;;;;5071777;28;20285;-79
2022/03/18 02:31:39;;;;;;;92.00;46.80;;;7.20;99.90;;;;;;5074457;28;20523;-78
2022/03/18 02:34:05;;;;;;;116.33;50.73;;;7.20;99.90;;;;;;5074988;28;20225;-79
2022/03/18 02:36:30;;;;;;;122.50;52.87;;;7.20;99.90;;;;;;5093859;28;20412;-77
2022/03/18 02:38:56;;;;;;;105.37;49.50;;;7.20;99.90;;;;;;5075653;28;20180;-77
2022/03/18 02:41:21;;;;;;;111.10;49.67;;;7.20;99.90;;;;;;5093063;28;20181;-78
2022/03/18 02:43:47;;;;;;;111.67;50.60;;;7.20;99.90;;;;;;5093603;28;20615;-78
2022/03/18 02:46:15;;;;;;;80.80;44.70;;;7.20;99.90;;;;;;5094643;28;20186;-79
2022/03/18 02:48:40;;;;;;;79.50;46.17;;;7.20;99.90;;;;;;5095323;28;20190;-79
2022/03/18 02:51:07;;;;;;;110.77;49.80;;;7.20;99.90;;;;;;5062518;28;20443;-80
2022/03/18 02:53:33;;;;;;;80.20;45.17;;;7.20;99.90;;;;;;5093983;28;20623;-80
2022/03/18 02:55:59;;;;;;;102.37;46.90;;;7.20;99.90;;;;;;5094996;28;20416;-77
2022/03/18 02:58:25;;;;;;;91.67;47.70;;;7.20;99.90;;;;;;5093627;28;20507;-78
2022/03/18 03:00:51;;;;;;;89.07;46.40;;;7.10;99.90;;;;;;5076227;28;20973;-78
2022/03/18 03:03:17;;;;;;;105.93;47.23;;;7.10;99.90;;;;;;5095694;28;20225;-79
2022/03/18 03:08:49;;;;;;;84.33;44.17;;;7.20;99.90;;;;;;5750088;22;20491;-76
2022/03/18 03:11:15;;;;;;;92.37;44.40;;;7.20;99.90;;;;;;5071642;28;20445;-75
2022/03/18 03:13:40;;;;;;;111.57;46.40;;;7.20;99.90;;;;;;5071792;28;20622;-74
2022/03/18 03:16:08;;;;;;;124.03;47.43;;;7.10;99.90;;;;;;5071628;28;20256;-74
2022/03/18 03:18:34;;;;;;;99.00;45.50;;;7.10;99.90;;;;;;5071822;28;20218;-74
2022/03/18 03:20:59;;;;;;;107.77;46.03;;;7.10;99.90;;;;;;5071549;28;20409;-74
2022/03/18 03:23:25;;;;;;;109.10;45.37;;;7.10;99.90;;;;;;5071642;28;20419;-77
2022/03/18 03:25:52;;;;;;;100.07;46.10;;;7.10;99.90;;;;;;5070122;28;20179;-75
2022/03/18 03:28:18;;;;;;;94.33;43.37;;;7.10;99.90;;;;;;5071177;28;20437;-77
2022/03/18 03:30:44;;;;;;;112.20;47.20;;;7.10;99.90;;;;;;5070290;28;20796;-79
2022/03/18 03:33:10;;;;;;;77.93;39.40;;;7.10;99.90;;;;;;5071688;28;20333;-76
2022/03/18 03:35:36;;;;;;;81.83;42.60;;;7.10;99.90;;;;;;5072693;28;20489;-79
2022/03/18 03:38:03;;;;;;;68.00;37.27;;;7.10;99.90;;;;;;5071852;28;20514;-77
2022/03/18 03:40:28;;;;;;;87.63;41.73;;;7.10;99.90;;;;;;5071011;28;20417;-76
2022/03/18 03:42:54;;;;;;;78.17;39.03;;;7.10;99.90;;;;;;5069935;28;20426;-79
2022/03/18 03:45:20;;;;;;;66.03;36.40;;;7.00;99.90;;;;;;5071058;28;20271;-74
2022/03/18 03:47:46;;;;;;;89.23;40.70;;;7.10;99.90;;;;;;5071054;28;20189;-75
2022/03/18 03:50:12;;;;;;;83.10;40.50;;;7.00;99.90;;;;;;5071034;28;20429;-75
2022/03/18 03:52:37;;;;;;;92.47;40.57;;;7.00;99.90;;;;;;5070821;28;20179;-75
2022/03/18 03:55:04;;;;;;;90.63;40.60;;;7.00;99.90;;;;;;5069278;28;20218;-75
2022/03/18 03:57:30;;;;;;;78.30;39.97;;;7.00;99.90;;;;;;5071019;28;20808;-76
2022/03/18 03:59:55;;;;;;;77.67;39.20;;;6.90;99.90;;;;;;5070533;28;21026;-77
2022/03/18 04:02:22;;;;;;;94.03;41.97;;;6.90;99.90;;;;;;5071144;28;20213;-77
2022/03/18 04:04:48;;;;;;;71.23;37.67;;;6.90;99.90;;;;;;5053728;28;20187;-78
2022/03/18 04:07:14;;;;;;;83.67;40.03;;;6.90;99.90;;;;;;5071353;28;20424;-77
2022/03/18 04:09:40;;;;;;;76.33;38.07;;;6.90;99.90;;;;;;5071329;28;20445;-78
2022/03/18 04:12:06;;;;;;;74.73;38.87;;;7.00;99.90;;;;;;5071751;28;20446;-77
2022/03/18 04:14:32;;;;;;;79.70;39.53;;;6.90;99.90;;;;;;5069076;28;20465;-78
2022/03/18 04:16:58;;;;;;;75.03;39.80;;;6.90;99.90;;;;;;5070729;28;20414;-77
2022/03/18 04:19:23;;;;;;;80.87;39.47;;;6.90;99.90;;;;;;5070577;28;20192;-77
2022/03/18 04:21:49;;;;;;;80.07;38.77;;;6.90;99.90;;;;;;5071184;28;20175;-78
2022/03/18 04:24:15;;;;;;;60.40;35.77;;;7.00;99.90;;;;;;5070249;28;20573;-76
2022/03/18 04:26:41;;;;;;;76.53;38.40;;;6.80;99.90;;;;;;5068549;28;20457;-76
2022/03/18 04:29:08;;;;;;;73.47;40.13;;;6.80;99.90;;;;;;5069747;28;20210;-79
2022/03/18 04:31:34;;;;;;;75.60;38.70;;;6.80;99.90;;;;;;5071115;28;20424;-78
2022/03/18 04:34:00;;;;;;;74.37;37.77;;;6.80;99.90;;;;;;5070199;28;20465;-75
2022/03/18 04:36:25;;;;;;;68.30;36.83;;;6.80;99.90;;;;;;5069393;28;20418;-75
2022/03/18 04:38:51;;;;;;;71.77;38.30;;;6.80;99.90;;;;;;5069585;28;20701;-75
2022/03/18 04:41:17;;;;;;;78.90;38.70;;;6.80;99.90;;;;;;5069336;28;20274;-75
2022/03/18 04:43:42;;;;;;;87.20;42.03;;;6.90;99.90;;;;;;5069277;28;20183;-75
2022/03/18 04:46:08;;;;;;;81.13;38.63;;;6.90;99.90;;;;;;5051008;28;20252;-75
2022/03/18 04:48:34;;;;;;;83.57;38.70;;;6.90;99.90;;;;;;5069614;28;20199;-78
2022/03/18 04:50:59;;;;;;;72.63;39.90;;;6.90;99.90;;;;;;5070631;28;20210;-77
2022/03/18 04:53:26;;;;;;;94.43;40.97;;;6.90;99.90;;;;;;5071864;28;20193;-77
2022/03/18 04:55:51;;;;;;;75.53;39.80;;;6.90;99.90;;;;;;5070798;28;20173;-78
2022/03/18 04:58:17;;;;;;;74.20;38.27;;;6.80;99.90;;;;;;5069327;28;20445;-78
2022/03/18 05:00:43;;;;;;;87.53;40.70;;;6.90;99.90;;;;;;5080671;28;20211;-78
2022/03/18 05:03:10;;;;;;;66.50;37.97;;;6.90;99.90;;;;;;5078483;28;20186;-74
2022/03/18 05:05:37;;;;;;;76.13;38.37;;;6.90;99.90;;;;;;5069052;28;20294;-75
2022/03/18 05:08:03;;;;;;;71.43;38.00;;;6.90;99.90;;;;;;5068725;28;20422;-75
2022/03/18 05:10:29;;;;;;;68.77;37.97;;;6.90;99.90;;;;;;5067077;28;20463;-75
2022/03/18 05:12:55;;;;;;;79.93;40.60;;;6.90;99.90;;;;;;5068719;28;20848;-74
2022/03/18 05:15:21;;;;;;;77.27;39.60;;;6.90;99.90;;;;;;5068278;28;20514;-76
2022/03/18 05:17:52;;;;;;;79.07;39.83;;;6.90;99.90;;;;;;5065939;28;20640;-75
2022/03/18 05:20:18;;;;;;;88.70;41.97;;;6.90;99.90;;;;;;5067176;28;21259;-74
2022/03/18 05:22:48;;;;;;;77.50;40.23;;;6.90;99.90;;;;;;5067090;28;20413;-74
2022/03/18 05:25:13;;;;;;;79.27;38.47;;;6.90;99.90;;;;;;5067601;28;20524;-74
2022/03/18 05:27:41;;;;;;;97.67;42.40;;;6.90;99.90;;;;;;5066173;28;20686;-74
2022/03/18 05:30:10;;;;;;;81.07;39.60;;;6.90;99.90;;;;;;5066032;28;20226;-74
2022/03/18 05:32:35;;;;;;;69.40;37.90;;;6.90;99.90;;;;;;5067358;28;20430;-74
2022/03/18 05:35:01;;;;;;;76.47;40.20;;;6.80;99.90;;;;;;5065630;28;20484;-74
2022/03/18 05:37:27;;;;;;;78.93;37.70;;;6.90;99.90;;;;;;5065738;28;20194;-74
2022/03/18 05:39:52;;;;;;;93.87;41.50;;;6.90;99.90;;;;;;5067251;28;20203;-74
2022/03/18 05:42:18;;;;;;;80.50;41.67;;;6.90;99.90;;;;;;5067204;28;20186;-74
2022/03/18 05:44:43;;;;;;;73.07;38.77;;;6.90;99.90;;;;;;5067168;28;20207;-74
2022/03/18 05:47:09;;;;;;;75.53;40.00;;;6.90;99.90;;;;;;5065738;28;20312;-75
2022/03/18 05:49:35;;;;;;;83.03;40.40;;;6.90;99.90;;;;;;5067305;28;20714;-74
2022/03/18 05:52:01;;;;;;;83.40;39.93;;;6.90;99.90;;;;;;5065725;28;20677;-74
2022/03/18 05:54:26;;;;;;;80.20;40.40;;;7.00;99.90;;;;;;5065117;28;20507;-74
2022/03/18 05:56:53;;;;;;;71.60;37.33;;;6.90;99.90;;;;;;5066760;28;20963;-74
2022/03/18 05:59:20;;;;;;;80.37;38.27;;;6.90;99.90;;;;;;5065506;28;20210;-74
2022/03/18 06:01:46;;;;;;;66.50;36.77;;;6.90;99.90;;;;;;5066848;28;20470;-74
2022/03/18 06:04:12;;;;;;;64.33;36.70;;;6.80;99.90;;;;;;5051144;28;20532;-74
2022/03/18 06:06:40;;;;;;;69.17;37.30;;;6.80;99.90;;;;;;5070686;28;20191;-74
2022/03/18 06:11:53;;;;;;;81.50;41.73;;;6.80;99.90;;;;;;5071057;28;21207;-74
2022/03/18 06:14:24;;;;;;;66.20;37.87;;;6.80;99.90;;;;;;5070791;28;20460;-74
2022/03/18 06:16:55;;;;;;;86.17;36.97;;;6.90;99.90;;;;;;5070874;28;20432;-74
2022/03/18 06:19:22;;;;;;;74.70;38.90;;;6.90;99.90;;;;;;5070562;28;20536;-75
2022/03/18 06:21:48;;;;;;;75.27;39.97;;;6.90;99.90;;;;;;5070868;28;20462;-74
2022/03/18 06:24:15;;;;;;;77.03;40.80;;;6.90;99.90;;;;;;5070786;28;20483;-74
2022/03/18 06:26:42;;;;;;;82.30;41.57;;;6.90;99.90;;;;;;5070687;28;20432;-74
2022/03/18 06:29:07;;;;;;;82.27;40.57;;;6.90;99.90;;;;;;5068643;28;20890;-74
2022/03/18 06:31:34;;;;;;;95.83;43.13;;;6.90;99.90;;;;;;5070641;28;20429;-74
2022/03/18 06:34:00;;;;;;;86.30;43.17;;;6.90;99.90;;;;;;5069180;28;20211;-74
2022/03/18 06:36:26;;;;;;;80.73;40.73;;;6.90;99.90;;;;;;5070513;28;20424;-74
2022/03/18 06:38:52;;;;;;;85.73;42.63;;;6.90;99.90;;;;;;5070369;28;20433;-74
2022/03/18 06:41:19;;;;;;;91.17;45.43;;;6.90;99.90;;;;;;5070290;28;20443;-74
2022/03/18 06:43:48;;;;;;;87.03;42.73;;;6.90;99.90;;;;;;5070387;28;20172;-74
2022/03/18 06:46:14;;;;;;;81.07;40.37;;;6.90;99.90;;;;;;5068534;28;20486;-74
2022/03/18 06:48:41;;;;;;;77.43;41.20;;;6.90;99.90;;;;;;5069881;28;20429;-74
2022/03/18 06:51:06;;;;;;;74.87;39.83;;;6.90;99.90;;;;;;5069949;28;20986;-74
2022/03/18 06:53:32;;;;;;;74.40;41.50;;;7.00;99.90;;;;;;5068589;28;20514;-74
2022/03/18 06:55:58;;;;;;;80.73;40.60;;;7.00;99.90;;;;;;5068850;28;20477;-75
2022/03/18 06:58:24;;;;;;;80.27;39.57;;;6.90;99.90;;;;;;5069211;28;20199;-75
2022/03/18 07:00:49;;;;;;;81.40;41.63;;;6.90;99.90;;;;;;5072040;28;20188;-75
2022/03/18 07:03:16;;;;;;;85.17;43.53;;;6.90;99.90;;;;;;5070141;28;20175;-75
2022/03/18 07:05:41;;;;;;;83.10;43.03;;;6.90;99.90;;;;;;5070041;28;20220;-76
2022/03/18 07:08:07;;;;;;;71.00;40.10;;;6.90;99.90;;;;;;5069846;28;20526;-75
2022/03/18 07:10:32;;;;;;;76.37;42.10;;;6.90;99.90;;;;;;5069672;28;20313;-75
2022/03/18 07:12:58;;;;;;;80.27;43.13;;;6.90;99.90;;;;;;5068421;28;20561;-75
2022/03/18 07:15:24;;;;;;;76.03;41.13;;;6.90;99.90;;;;;;5069450;28;20694;-76
2022/03/18 07:17:55;;;;;;;85.70;43.10;;;7.00;99.90;;;;;;5069399;28;20939;-75
2022/03/18 07:20:28;;;;;;;80.33;42.93;;;7.00;99.90;;;;;;5068065;28;20187;-76
2022/03/18 07:23:11;;;;;;;92.90;44.63;;;6.90;99.90;;;;;;5068065;28;20452;-75
2022/03/18 07:25:48;;;;;;;83.23;43.23;;;6.90;99.90;;;;;;5069504;28;20425;-75
2022/03/18 07:28:15;;;;;;;84.20;42.00;;;7.00;99.90;;;;;;5069451;28;20449;-75
2022/03/18 07:30:43;;;;;;;89.73;44.77;;;7.00;99.90;;;;;;5069382;28;20418;-75
2022/03/18 07:33:09;;;;;;;78.23;40.40;;;7.00;99.90;;;;;;5069282;28;20770;-75
2022/03/18 07:35:36;;;;;;;79.47;41.97;;;7.20;99.90;;;;;;5068102;28;20465;-75
2022/03/18 07:38:05;;;;;;;82.10;43.10;;;7.10;99.90;;;;;;5069234;28;20414;-75
2022/03/18 07:40:30;;;;;;;76.20;41.63;;;7.20;99.90;;;;;;5069338;28;20421;-75
2022/03/18 07:42:58;;;;;;;77.67;43.83;;;7.10;99.90;;;;;;5069317;28;20463;-75
2022/03/18 07:45:27;;;;;;;83.73;43.70;;;7.20;99.90;;;;;;5069308;28;20190;-75
2022/03/18 07:47:55;;;;;;;64.07;39.13;;;7.30;99.90;;;;;;5069111;28;20418;-74
2022/03/18 07:50:22;;;;;;;69.87;40.70;;;7.30;99.90;;;;;;5069137;28;20415;-76
2022/03/18 07:52:56;;;;;;;73.63;42.63;;;7.30;99.90;;;;;;5068955;28;20417;-75
2022/03/18 07:55:24;;;;;;;80.73;43.07;;;7.30;99.90;;;;;;5067494;28;20499;-74
2022/03/18 07:57:51;;;;;;;75.80;42.20;;;7.30;99.90;;;;;;5068901;28;21155;-75
2022/03/18 08:00:17;;;;;;;72.57;42.30;;;7.30;99.90;;;;;;5067261;28;20759;-74
2022/03/18 08:02:44;;;;;;;73.73;41.40;;;7.30;99.90;;;;;;5068611;28;20410;-75
2022/03/18 08:05:11;;;;;;;75.40;39.97;;;7.40;99.90;;;;;;5068414;28;20913;-74
2022/03/18 08:07:37;;;;;;;74.50;41.60;;;7.40;99.90;;;;;;5068318;28;21017;-74
2022/03/18 08:10:04;;;;;;;77.93;41.73;;;7.40;99.90;;;;;;5068301;28;20944;-74
2022/03/18 08:12:31;;;;;;;68.87;42.33;;;7.40;99.90;;;;;;5068117;28;20524;-75
2022/03/18 08:15:04;;;;;;;70.47;41.50;;;7.40;99.90;;;;;;5068172;28;20461;-75
2022/03/18 08:17:30;;;;;;;69.93;41.60;;;7.40;99.90;;;;;;5068099;28;20433;-74
2022/03/18 08:19:56;;;;;;;68.20;40.10;;;7.40;99.90;;;;;;5067799;28;20942;-75
2022/03/18 08:22:22;;;;;;;70.17;41.97;;;7.40;99.90;;;;;;5067789;28;20420;-75
2022/03/18 08:24:49;;;;;;;73.50;40.13;;;7.30;99.90;;;;;;5067750;28;20940;-75
2022/03/18 08:27:15;;;;;;;70.73;41.10;;;7.40;99.90;;;;;;5065606;28;20184;-75
2022/03/18 08:29:41;;;;;;;65.57;39.57;;;7.40;99.90;;;;;;5065984;28;20436;-75
2022/03/18 08:32:08;;;;;;;67.83;39.87;;;7.40;99.90;;;;;;5049302;28;20543;-75
2022/03/18 08:34:34;;;;;;;73.77;42.33;;;7.50;99.90;;;;;;5067504;28;20993;-75
2022/03/18 08:37:00;;;;;;;65.43;39.17;;;7.50;99.90;;;;;;5067401;28;20424;-75
2022/03/18 08:39:26;;;;;;;70.53;40.73;;;7.50;99.90;;;;;;5067594;28;20274;-75
2022/03/18 08:41:52;;;;;;;63.93;38.10;;;7.50;99.90;;;;;;5066042;28;20413;-75
2022/03/18 08:44:19;;;;;;;68.53;38.90;;;7.60;99.90;;;;;;5067456;28;20482;-75
2022/03/18 08:46:46;;;;;;;72.23;40.47;;;7.60;99.90;;;;;;5066141;28;20274;-74
2022/03/18 08:49:12;;;;;;;64.97;37.63;;;7.70;99.90;;;;;;5066965;28;20498;-75
2022/03/18 08:51:38;;;;;;;67.67;37.80;;;7.70;99.90;;;;;;5067344;28;20488;-75
2022/03/18 08:54:05;;;;;;;59.30;36.03;;;7.70;99.90;;;;;;5065887;28;20472;-75
2022/03/18 08:56:31;;;;;;;64.10;37.80;;;7.80;99.90;;;;;;5067421;28;20409;-75
2022/03/18 08:58:58;;;;;;;66.83;38.70;;;7.80;99.90;;;;;;5067191;28;21421;-75
2022/03/18 09:01:25;;;;;;;60.77;35.30;;;7.80;99.90;;;;;;5065932;28;20479;-75
2022/03/18 09:03:53;;;;;;;62.90;37.67;;;7.80;99.90;;;;;;5067142;28;20936;-74
2022/03/18 09:06:19;;;;;;;66.50;36.20;;;8.00;99.90;;;;;;5067271;28;20908;-75
2022/03/18 09:08:44;;;;;;;62.00;37.30;;;8.10;99.90;;;;;;5066993;28;20441;-75
2022/03/18 09:11:10;;;;;;;56.20;36.83;;;8.20;99.90;;;;;;5065774;28;20207;-75
2022/03/18 09:13:36;;;;;;;62.97;36.60;;;8.30;99.90;;;;;;5067081;28;20171;-75
2022/03/18 09:16:04;;;;;;;57.97;36.07;;;8.50;99.90;;;;;;5067122;28;20417;-75
2022/03/18 09:18:30;;;;;;;54.97;34.40;;;8.60;99.90;;;;;;5066924;28;20438;-75
2022/03/18 09:20:56;;;;;;;63.80;35.07;;;8.90;99.90;;;;;;5067108;28;20424;-75
2022/03/18 09:23:22;;;;;;;56.77;35.37;;;9.00;99.90;;;;;;5067075;28;20413;-75
2022/03/18 09:25:48;;;;;;;52.67;35.10;;;9.30;99.90;;;;;;5067131;28;20192;-75
2022/03/18 09:28:14;;;;;;;56.47;35.37;;;9.40;99.90;;;;;;5065382;28;20487;-75
2022/03/18 09:30:41;;;;;;;51.80;33.70;;;9.50;99.90;;;;;;5067697;28;20188;-75
2022/03/18 09:33:08;;;;;;;51.07;33.00;;;9.40;99.90;;;;;;5065951;28;20226;-75
2022/03/18 09:35:34;;;;;;;51.50;33.30;;;9.40;99.90;;;;;;5065299;28;20543;-75
2022/03/18 09:37:59;;;;;;;56.80;36.17;;;9.30;99.90;;;;;;5066910;28;20413;-75
2022/03/18 09:40:25;;;;;;;54.43;33.53;;;9.30;99.90;;;;;;5069416;28;20417;-75
2022/03/18 09:42:59;;;;;;;56.97;33.83;;;9.30;99.90;;;;;;5069663;28;20175;-75
2022/03/18 09:45:30;;;;;;;53.73;34.20;;;9.20;99.90;;;;;;5071044;28;20202;-75
2022/03/18 09:47:57;;;;;;;55.30;33.80;;;9.20;99.90;;;;;;5068886;28;20421;-75
2022/03/18 09:50:23;;;;;;;54.37;34.43;;;9.30;99.90;;;;;;5070820;28;20417;-75
2022/03/18 09:52:49;;;;;;;52.80;34.47;;;9.30;99.90;;;;;;5069039;28;20421;-75
2022/03/18 09:55:15;;;;;;;46.60;31.37;;;9.40;99.90;;;;;;5070466;28;20847;-75
2022/03/18 09:57:41;;;;;;;54.70;33.70;;;9.40;99.90;;;;;;5070498;28;20416;-75
2022/03/18 10:00:07;;;;;;;49.70;32.13;;;9.30;99.90;;;;;;5070627;28;20195;-75
2022/03/18 10:02:34;;;;;;;62.23;32.27;;;9.40;99.90;;;;;;5071094;28;20185;-75
2022/03/18 10:05:02;;;;;;;49.20;32.10;;;9.50;99.90;;;;;;5070969;28;20430;-75
2022/03/18 10:07:29;;;;;;;52.07;32.60;;;9.50;99.90;;;;;;5071130;28;20924;-75
2022/03/18 10:10:15;;;;;;;50.90;31.60;;;9.60;99.90;;;;;;5069696;28;21208;-74
2022/03/18 10:12:44;;;;;;;46.20;31.27;;;9.70;99.90;;;;;;5070539;28;20433;-75
2022/03/18 10:15:10;;;;;;;47.40;30.80;;;9.80;99.90;;;;;;5068723;28;20466;-75
2022/03/18 10:17:47;;;;;;;42.70;29.90;;;10.10;99.90;;;;;;5070230;28;20413;-75
2022/03/18 10:20:26;;;;;;;47.33;30.33;;;10.40;99.90;;;;;;5070626;28;20522;-75
2022/03/18 10:22:54;;;;;;;44.50;30.53;;;10.70;99.90;;;;;;5071050;28;20429;-75
2022/03/18 10:25:40;;;;;;;44.57;29.97;;;10.80;99.90;;;;;;5070604;28;20429;-76
2022/03/18 10:28:08;;;;;;;47.47;30.07;;;11.00;99.90;;;;;;5070780;28;20445;-75
2022/03/18 10:30:35;;;;;;;48.33;31.10;;;11.10;99.90;;;;;;5052779;28;20448;-75
2022/03/18 10:33:02;;;;;;;45.63;31.13;;;11.20;99.90;;;;;;5070715;28;20413;-75
2022/03/18 10:38:35;;;;;;;45.77;29.40;;;11.20;99.90;;;;;;5070861;28;21269;-75
2022/03/18 10:41:07;;;;;;;42.93;30.03;;;11.20;99.90;;;;;;5070523;28;20421;-75
2022/03/18 10:43:55;;;;;;;42.80;28.37;;;11.10;99.90;;;;;;5068856;28;20436;-76
2022/03/18 10:46:22;;;;;;;45.10;30.10;;;11.20;99.90;;;;;;5070040;28;20416;-76
2022/03/18 10:49:02;;;;;;;47.90;30.13;;;11.20;99.90;;;;;;5069892;28;20887;-75
2022/03/18 10:51:28;;;;;;;45.87;30.70;;;11.80;99.90;;;;;;5069146;28;20419;-75
2022/03/18 10:53:57;;;;;;;41.97;27.70;;;12.10;99.90;;;;;;5051738;28;20426;-75
2022/03/18 10:56:23;;;;;;;41.90;28.40;;;12.10;99.90;;;;;;5070410;28;20706;-76
2022/03/18 10:58:49;;;;;;;44.70;29.10;;;12.20;99.90;;;;;;5069986;28;20918;-75
2022/03/18 11:01:16;;;;;;;40.30;28.03;;;12.30;99.90;;;;;;5068759;28;20423;-76
2022/03/18 11:03:45;;;;;;;39.33;28.20;;;12.10;99.90;;;;;;5069550;28;20187;-75
2022/03/18 11:06:11;;;;;;;46.83;29.30;;;12.20;99.90;;;;;;5069413;28;20414;-76
2022/03/18 11:08:48;;;;;;;40.37;26.90;;;12.20;99.90;;;;;;5069828;28;20434;-76
2022/03/18 11:11:20;;;;;;;38.07;27.67;;;12.10;99.90;;;;;;5068376;28;20564;-76
2022/03/18 11:13:48;;;;;;;40.07;27.30;;;12.30;99.90;;;;;;5052686;28;20483;-76
2022/03/18 11:16:38;;;;;;;39.63;27.77;;;12.20;99.90;;;;;;5068572;28;20501;-75
2022/03/18 11:19:08;;;;;;;42.93;28.60;;;12.10;99.90;;;;;;5068711;28;21009;-76
2022/03/18 11:21:40;;;;;;;36.10;26.07;;;12.00;99.90;;;;;;5068538;28;20438;-75
2022/03/18 11:24:22;;;;;;;40.40;27.73;;;12.40;99.90;;;;;;5070162;28;20453;-75
2022/03/18 11:26:50;;;;;;;39.37;27.90;;;12.60;99.90;;;;;;5074086;28;20421;-80
2022/03/18 11:29:23;;;;;;;42.47;27.70;;;12.80;99.90;;;;;;5074890;28;20879;-79
2022/03/18 11:32:21;;;;;;;41.80;27.60;;;13.10;99.90;;;;;;5076256;28;20955;-79
2022/03/18 11:34:58;;;;;;;38.73;28.00;;;12.90;99.90;;;;;;5062904;28;20486;-79
2022/03/18 11:37:29;;;;;;;44.43;28.47;;;12.80;99.90;;;;;;5083228;28;20484;-78
2022/03/18 11:40:27;;;;;;;40.80;27.77;;;12.70;99.90;;;;;;5086915;28;20428;-78
2022/03/18 11:42:54;;;;;;;38.03;26.43;;;12.70;99.90;;;;;;5087900;28;20420;-78
2022/03/18 11:45:37;;;;;;;41.97;28.37;;;12.90;99.90;;;;;;5092730;28;20567;-78
2022/03/18 11:48:35;;;;;;;43.73;29.80;;;12.80;99.90;;;;;;5092553;28;20425;-77
2022/03/18 11:51:27;;;;;;;41.73;29.33;;;13.10;99.90;;;;;;5093821;28;20430;-77
2022/03/18 11:53:55;;;;;;;42.67;28.47;;;13.20;99.90;;;;;;5092143;28;20481;-78
2022/03/18 11:56:23;;;;;;;37.57;26.03;;;13.50;99.50;;;;;;5093671;28;20498;-78
2022/03/18 11:58:49;;;;;;;42.30;29.30;;;13.70;99.00;;;;;;5089537;28;20470;-78
2022/03/18 12:01:51;;;;;;;39.93;28.80;;;13.70;99.50;;;;;;5091779;28;20420;-77
2022/03/18 12:04:38;;;;;;;42.10;29.77;;;13.70;99.40;;;;;;5079961;28;20472;-78
2022/03/18 12:07:11;;;;;;;41.27;27.43;;;13.40;98.50;;;;;;5073727;28;20455;-78
2022/03/18 12:10:07;;;;;;;39.87;28.50;;;13.50;98.30;;;;;;5089852;28;20455;-78
2022/03/18 12:12:48;;;;;;;42.27;28.50;;;13.30;98.90;;;;;;5085419;28;20593;-78
2022/03/18 12:15:17;;;;;;;40.20;27.23;;;13.50;98.70;;;;;;5090448;28;20523;-78
2022/03/18 12:17:45;;;;;;;44.97;29.20;;;13.60;98.90;;;;;;5090529;28;20599;-78
2022/03/18 12:20:32;;;;;;;40.50;28.77;;;13.70;98.50;;;;;;5068923;28;20448;-78
2022/03/18 12:23:00;;;;;;;40.70;28.43;;;14.10;98.50;;;;;;5084468;28;20427;-78
2022/03/18 12:25:26;;;;;;;41.53;26.73;;;14.50;98.40;;;;;;5066644;28;20423;-78
2022/03/18 12:27:54;;;;;;;37.87;28.50;;;14.10;96.10;;;;;;5083302;28;20423;-79
2022/03/18 12:30:25;;;;;;;37.83;28.20;;;14.10;97.80;;;;;;5081123;28;20420;-79
2022/03/18 12:33:01;;;;;;;46.33;29.77;;;14.00;97.70;;;;;;5065974;28;20536;-78
2022/03/18 12:35:36;;;;;;;36.43;27.30;;;14.10;97.00;;;;;;5086198;28;20454;-79
2022/03/18 12:38:16;;;;;;;39.20;29.00;;;14.40;96.60;;;;;;5084680;28;20421;-78
2022/03/18 12:40:56;;;;;;;40.87;28.97;;;14.90;95.60;;;;;;5086299;28;20413;-78
2022/03/18 12:43:24;;;;;;;43.77;28.53;;;14.90;96.10;;;;;;5084964;28;20455;-78
2022/03/18 12:45:50;;;;;;;40.50;29.03;;;15.00;95.50;;;;;;5082561;28;20422;-79
2022/03/18 12:48:21;;;;;;;42.70;28.20;;;15.10;95.20;;;;;;5085456;28;20569;-78
2022/03/18 12:50:49;;;;;;;45.87;28.90;;;15.00;96.00;;;;;;5083541;28;20797;-79
2022/03/18 12:53:18;;;;;;;39.67;27.97;;;14.80;96.20;;;;;;5086044;28;20486;-78